createdAt,value
2022-08-05T00:01:28.014Z,98666.44
2022-08-05T00:04:30.860Z,98677.56
2022-08-05T00:07:59.969Z,98676.47
2022-08-05T00:11:01.602Z,98689.75
2022-08-05T00:14:11.946Z,98689.00
2022-08-05T00:17:19.420Z,98684.78
2022-08-05T00:20:22.015Z,98686.44
2022-08-05T00:23:45.643Z,98688.66
2022-08-05T00:26:51.749Z,98675.25
2022-08-05T00:29:53.877Z,98688.84
2022-08-05T00:32:58.041Z,98682.66
2022-08-05T00:36:14.935Z,98683.53
2022-08-05T00:39:18.411Z,98686.25
2022-08-05T00:42:35.052Z,98680.59
2022-08-05T00:45:38.614Z,98675.25
2022-08-05T00:48:50.283Z,98676.69
2022-08-05T00:51:53.523Z,98673.81
2022-08-05T00:54:56.037Z,98657.06
2022-08-05T00:57:59.225Z,98656.06
2022-08-05T01:01:01.206Z,98650.84
2022-08-05T01:04:03.728Z,98652.16
2022-08-05T01:07:15.674Z,98641.16
2022-08-05T01:10:25.780Z,98643.25
2022-08-05T01:13:58.670Z,98652.56
2022-08-05T01:17:12.201Z,98651.81
2022-08-05T01:20:34.556Z,98652.72
2022-08-05T01:24:13.247Z,98664.22
2022-08-05T01:27:55.475Z,98661.75
2022-08-05T01:31:29.779Z,98673.19
2022-08-05T01:34:34.164Z,98664.97
2022-08-05T01:38:04.993Z,98670.34
2022-08-05T01:41:07.984Z,98664.91
2022-08-05T01:44:11.218Z,98656.81
2022-08-05T01:47:17.182Z,98666.09
2022-08-05T01:50:30.481Z,98667.81
2022-08-05T01:53:54.648Z,98660.31
2022-08-05T01:58:11.438Z,98675.97
2022-08-05T02:00:30.240Z,98676.66
2022-08-05T02:03:39.296Z,98687.03
2022-08-05T02:06:41.629Z,98688.84
2022-08-05T02:09:47.052Z,98696.84
2022-08-05T02:12:59.970Z,98706.16
2022-08-05T02:16:16.608Z,98721.97
2022-08-05T02:19:41.415Z,98727.84
2022-08-05T02:22:57.052Z,98729.41
2022-08-05T02:26:02.834Z,98723.34
2022-08-05T02:29:07.157Z,98718.19
2022-08-05T02:32:30.938Z,98694.41
2022-08-05T02:35:37.640Z,98676.56
2022-08-05T02:38:44.712Z,98675.00
2022-08-05T02:42:00.551Z,98673.81
2022-08-05T02:45:03.604Z,98675.09
2022-08-05T02:48:09.851Z,98664.09
2022-08-05T02:51:16.301Z,98670.13
2022-08-05T02:54:35.959Z,98665.88
2022-08-05T02:58:12.050Z,98664.53
2022-08-05T03:01:03.009Z,98662.66
2022-08-05T03:04:11.784Z,98662.31
2022-08-05T03:07:24.669Z,98644.84
2022-08-05T03:10:36.422Z,98640.34
2022-08-05T03:13:51.022Z,98634.16
2022-08-05T03:16:54.141Z,98635.56
2022-08-05T03:19:58.476Z,98645.00
2022-08-05T03:23:00.767Z,98656.75
2022-08-05T03:26:32.061Z,98679.47
2022-08-05T03:29:45.748Z,98691.34
2022-08-05T03:32:49.245Z,98699.81
2022-08-05T03:35:51.816Z,98708.59
2022-08-05T03:38:53.575Z,98712.13
2022-08-05T03:41:56.669Z,98721.44
2022-08-05T03:44:58.335Z,98717.09
2022-08-05T03:48:00.039Z,98724.19
2022-08-05T03:52:39.018Z,98725.75
2022-08-05T03:56:01.121Z,98739.69
2022-08-05T03:58:19.483Z,98754.81
2022-08-05T04:01:22.945Z,98782.97
2022-08-05T04:04:26.490Z,98802.78
2022-08-05T04:07:29.747Z,98826.81
2022-08-05T04:10:38.120Z,98830.50
2022-08-05T04:13:50.632Z,98859.53
2022-08-05T04:16:54.651Z,98886.06
2022-08-05T04:20:01.847Z,98932.25
2022-08-05T04:23:04.519Z,98950.13
2022-08-05T04:26:06.303Z,98947.34
2022-08-05T04:29:08.873Z,98974.81
2022-08-05T04:32:10.949Z,98982.59
2022-08-05T04:35:17.741Z,98979.28
2022-08-05T04:38:21.587Z,98975.16
2022-08-05T04:41:41.110Z,98970.84
2022-08-05T04:44:42.899Z,98988.75
2022-08-05T04:47:47.268Z,98989.50
2022-08-05T04:51:03.623Z,98989.09
2022-08-05T04:54:12.123Z,98997.03
2022-08-05T04:57:13.966Z,98992.75
2022-08-05T05:00:16.035Z,99000.66
2022-08-05T05:03:18.780Z,98980.59
2022-08-05T05:06:39.450Z,98995.78
2022-08-05T05:09:44.559Z,99000.00
2022-08-05T05:12:46.166Z,99012.56
2022-08-05T05:15:56.569Z,99009.66
2022-08-05T05:19:18.962Z,98994.16
2022-08-05T05:22:26.412Z,98992.91
2022-08-05T05:25:32.553Z,99001.94
2022-08-05T05:28:42.652Z,99003.78
2022-08-05T05:31:46.279Z,98990.09
2022-08-05T05:34:48.405Z,98978.63
2022-08-05T05:38:00.347Z,98981.41
2022-08-05T05:41:03.595Z,98968.19
2022-08-05T05:44:37.546Z,98966.59
2022-08-05T05:48:06.967Z,98967.75
2022-08-05T05:50:53.673Z,98975.03
2022-08-05T05:53:59.830Z,98959.06
2022-08-05T05:57:01.728Z,98951.84
2022-08-05T06:00:10.223Z,98940.34
2022-08-05T06:03:40.096Z,98940.59
2022-08-05T06:06:38.464Z,98949.09
2022-08-05T06:10:00.124Z,98954.19
2022-08-05T06:13:05.420Z,98972.09
2022-08-05T06:16:30.281Z,98990.53
2022-08-05T06:19:34.411Z,98987.00
2022-08-05T06:22:37.434Z,99004.91
2022-08-05T06:26:12.201Z,99012.53
2022-08-05T06:29:06.976Z,99008.56
2022-08-05T06:32:28.821Z,99010.44
2022-08-05T06:36:04.175Z,99019.31
2022-08-05T06:38:54.792Z,99023.38
2022-08-05T06:42:04.179Z,99019.34
2022-08-05T06:45:08.617Z,99023.81
2022-08-05T06:48:36.530Z,99026.84
2022-08-05T06:51:32.670Z,99019.63
2022-08-05T06:54:34.519Z,99029.16
2022-08-05T06:58:03.231Z,99032.31
2022-08-05T07:01:00.645Z,99020.75
2022-08-05T07:04:03.105Z,99030.81
2022-08-05T07:07:15.192Z,99036.88
2022-08-05T07:10:17.061Z,99040.91
2022-08-05T07:13:57.173Z,99039.97
2022-08-05T07:18:08.749Z,99032.88
2022-08-05T07:20:38.920Z,99040.06
2022-08-05T07:23:50.007Z,99029.06
2022-08-05T07:26:54.129Z,99050.19
2022-08-05T07:30:27.355Z,99037.47
2022-08-05T07:33:36.866Z,99034.69
2022-08-05T07:36:51.338Z,99029.19
2022-08-05T07:40:04.041Z,99006.69
2022-08-05T07:43:20.778Z,99005.63
2022-08-05T07:46:25.174Z,98981.31
2022-08-05T07:49:34.711Z,98990.53
2022-08-05T07:53:22.607Z,98980.53
2022-08-05T07:56:59.790Z,98983.97
2022-08-05T07:59:53.887Z,98977.94
2022-08-05T08:03:14.569Z,98956.34
2022-08-05T08:06:29.974Z,98962.53
2022-08-05T08:10:05.395Z,98958.50
2022-08-05T08:13:07.336Z,98951.03
2022-08-05T08:16:50.116Z,98945.72
2022-08-05T08:20:10.117Z,98954.94
2022-08-05T08:23:00.213Z,98939.03
2022-08-05T08:26:05.278Z,98933.59
2022-08-05T08:29:45.357Z,98932.41
2022-08-05T08:32:34.489Z,98928.22
2022-08-05T08:35:52.957Z,98923.09
2022-08-05T08:39:06.480Z,98933.47
2022-08-05T08:42:34.229Z,98928.53
2022-08-05T08:45:48.763Z,98925.78
2022-08-05T08:49:08.047Z,98900.66
2022-08-05T08:52:25.781Z,98911.00
2022-08-05T08:55:31.963Z,98915.94
2022-08-05T08:58:51.678Z,98917.41
2022-08-05T09:01:57.541Z,98915.91
2022-08-05T09:05:17.687Z,98919.56
2022-08-05T09:08:20.470Z,98912.94
2022-08-05T09:11:52.686Z,98916.78
2022-08-05T09:14:56.432Z,98919.53
2022-08-05T09:17:59.937Z,98918.31
2022-08-05T09:21:02.274Z,98917.38
2022-08-05T09:24:08.811Z,98932.94
2022-08-05T09:28:04.669Z,98930.59
2022-08-05T09:31:01.342Z,98934.34
2022-08-05T09:34:23.145Z,98941.72
2022-08-05T09:38:17.303Z,98942.44
2022-08-05T09:40:52.191Z,98940.75
2022-08-05T09:43:55.493Z,98934.78
2022-08-05T09:47:17.639Z,98941.75
2022-08-05T09:50:37.666Z,98939.56
2022-08-05T09:53:53.529Z,98940.91
2022-08-05T10:01:02.148Z,98937.97
2022-08-05T10:04:16.150Z,98934.28
2022-08-05T10:07:20.711Z,98928.28
2022-08-05T10:10:43.998Z,98921.53
2022-08-05T10:13:48.434Z,98927.53
2022-08-05T10:16:53.434Z,98923.72
2022-08-05T10:20:03.703Z,98923.72
2022-08-05T10:23:33.994Z,98926.16
2022-08-05T10:26:36.877Z,98916.38
2022-08-05T10:30:06.784Z,98917.13
2022-08-05T10:33:14.723Z,98924.09
2022-08-05T10:36:17.584Z,98931.88
2022-08-05T10:39:58.998Z,98929.81
2022-08-05T10:43:02.645Z,98923.72
2022-08-05T10:46:09.304Z,98916.56
2022-08-05T10:49:27.090Z,98916.63
2022-08-05T10:52:46.962Z,98903.28
2022-08-05T10:56:25.170Z,98920.75
2022-08-05T11:00:04.284Z,98918.19
2022-08-05T11:03:25.730Z,98915.38
2022-08-05T11:06:30.946Z,98916.97
2022-08-05T11:10:03.929Z,98918.72
2022-08-05T11:13:57.743Z,98916.47
2022-08-05T11:17:56.852Z,98924.66
2022-08-05T11:20:51.683Z,98925.53
2022-08-05T11:24:05.601Z,98918.41
2022-08-05T11:27:45.789Z,98913.50
2022-08-05T11:30:59.065Z,98912.38
2022-08-05T11:34:08.196Z,98913.91
2022-08-05T11:38:30.057Z,98911.88
2022-08-05T11:41:03.550Z,98909.94
2022-08-05T11:44:40.752Z,98911.31
2022-08-05T11:47:49.867Z,98907.97
2022-08-05T11:50:53.131Z,98904.94
2022-08-05T11:53:56.571Z,98906.59
2022-08-05T11:57:24.427Z,98901.69
2022-08-05T12:00:31.742Z,98902.19
2022-08-05T12:03:55.750Z,98906.88
2022-08-05T12:07:00.084Z,98902.19
2022-08-05T12:10:09.005Z,98902.03
2022-08-05T12:13:15.782Z,98891.34
2022-08-05T12:16:20.316Z,98891.41
2022-08-05T12:20:25.340Z,98884.00
2022-08-05T12:22:49.154Z,98896.56
2022-08-05T12:25:56.619Z,98900.88
2022-08-05T12:29:01.318Z,98894.47
2022-08-05T12:32:05.586Z,98898.06
2022-08-05T12:35:09.691Z,98888.50
2022-08-05T12:38:11.548Z,98891.75
2022-08-05T12:41:17.517Z,98889.13
2022-08-05T12:44:28.592Z,98884.81
2022-08-05T12:47:36.151Z,98888.47
2022-08-05T12:50:38.531Z,98888.31
2022-08-05T12:53:55.617Z,98888.50
2022-08-05T12:57:03.775Z,98888.19
2022-08-05T13:02:04.266Z,98883.78
2022-08-05T13:03:48.809Z,98896.63
2022-08-05T13:06:52.047Z,98888.66
2022-08-05T13:09:58.887Z,98886.06
2022-08-05T13:13:06.410Z,98881.78
2022-08-05T13:16:16.690Z,98886.44
2022-08-05T13:19:21.675Z,98889.09
2022-08-05T13:22:29.146Z,98881.38
2022-08-05T13:25:52.120Z,98890.69
2022-08-05T13:28:53.825Z,98895.81
2022-08-05T13:32:04.350Z,98899.97
2022-08-05T13:35:08.002Z,98903.09
2022-08-05T13:38:11.526Z,98904.63
2022-08-05T13:41:22.534Z,98901.22
2022-08-05T13:44:27.432Z,98897.28
2022-08-05T13:47:35.717Z,98902.28
2022-08-05T13:50:52.271Z,98908.72
2022-08-05T13:53:57.851Z,98906.97
2022-08-05T13:56:59.701Z,98914.59
2022-08-05T14:00:02.143Z,98914.63
2022-08-05T14:03:11.013Z,98907.44
2022-08-05T14:06:26.050Z,98915.66
2022-08-05T14:09:29.733Z,98931.16
2022-08-05T14:12:34.099Z,98927.84
2022-08-05T14:16:07.546Z,98931.97
2022-08-05T14:18:57.991Z,98917.03
2022-08-05T14:22:09.974Z,98929.38
2022-08-05T14:25:21.814Z,98943.72
2022-08-05T14:28:26.981Z,98937.06
2022-08-05T14:31:54.584Z,98942.53
2022-08-05T14:34:51.041Z,98935.19
2022-08-05T14:37:55.473Z,98938.72
2022-08-05T14:40:57.518Z,98944.34
2022-08-05T14:44:09.814Z,98941.25
2022-08-05T14:47:58.370Z,98953.91
2022-08-05T14:50:44.170Z,98954.84
2022-08-05T14:54:26.979Z,98952.06
2022-08-05T14:57:53.844Z,98953.69
2022-08-05T15:00:59.283Z,98954.66
2022-08-05T15:04:02.073Z,98954.66
2022-08-05T15:07:03.733Z,98947.59
2022-08-05T15:10:09.795Z,98962.44
2022-08-05T15:13:11.994Z,98971.16
2022-08-05T15:16:14.973Z,98968.59
2022-08-05T15:19:23.865Z,98971.44
2022-08-05T15:22:28.388Z,98968.81
2022-08-05T15:25:52.592Z,98970.38
2022-08-05T15:28:57.954Z,98980.63
2022-08-05T15:32:02.243Z,98989.66
2022-08-05T15:35:10.629Z,98988.41
2022-08-05T15:38:35.408Z,98987.66
2022-08-05T15:41:57.714Z,98993.38
2022-08-05T15:44:57.544Z,99005.59
2022-08-05T15:47:59.153Z,99003.00
2022-08-05T15:51:03.414Z,99008.56
2022-08-05T15:54:08.330Z,99002.84
2022-08-05T15:57:10.373Z,99003.16
2022-08-05T16:00:13.073Z,99014.94
2022-08-05T16:03:18.874Z,99018.94
2022-08-05T16:06:29.449Z,99016.19
2022-08-05T16:09:32.006Z,99016.72
2022-08-05T16:12:34.408Z,99027.66
2022-08-05T16:15:36.103Z,99031.13
2022-08-05T16:18:51.696Z,99034.53
2022-08-05T16:22:02.600Z,99037.53
2022-08-05T16:25:09.845Z,99019.03
2022-08-05T16:28:11.956Z,99012.47
2022-08-05T16:31:17.452Z,99044.50
2022-08-05T16:34:21.591Z,99044.06
2022-08-05T16:38:15.887Z,99037.63
2022-08-05T16:40:47.902Z,99045.84
2022-08-05T16:43:57.051Z,99048.31
2022-08-05T16:46:59.309Z,99044.63
2022-08-05T16:50:00.912Z,99050.50
2022-08-05T16:53:12.574Z,99043.41
2022-08-05T16:56:25.104Z,99044.06
2022-08-05T16:59:27.808Z,99053.41
2022-08-05T17:02:29.842Z,99045.66
2022-08-05T17:05:32.215Z,99047.94
2022-08-05T17:08:52.449Z,99044.75
2022-08-05T17:12:00.026Z,99039.63
2022-08-05T17:15:02.141Z,99045.25
2022-08-05T17:18:04.600Z,99043.06
2022-08-05T17:21:06.398Z,99046.28
2022-08-05T17:24:19.534Z,99045.91
2022-08-05T17:27:33.679Z,99052.97
2022-08-05T17:30:50.284Z,99055.25
2022-08-05T17:33:54.016Z,99060.91
2022-08-05T17:37:00.558Z,99060.66
2022-08-05T17:40:03.160Z,99066.34
2022-08-05T17:43:07.875Z,99056.25
2022-08-05T17:46:18.272Z,99049.50
2022-08-05T17:49:20.897Z,99059.53
2022-08-05T17:52:26.069Z,99052.94
2022-08-05T17:55:38.350Z,99066.66
2022-08-05T17:58:41.495Z,99067.00
2022-08-05T18:01:49.466Z,99055.31
2022-08-05T18:04:55.017Z,99059.47
2022-08-05T18:07:57.066Z,99061.47
2022-08-05T18:10:59.291Z,99071.25
2022-08-05T18:14:03.466Z,99078.28
2022-08-05T18:17:06.115Z,99078.78
2022-08-05T18:20:29.653Z,99075.88
2022-08-05T18:23:45.827Z,99074.56
2022-08-05T18:26:48.971Z,99079.03
2022-08-05T18:29:54.366Z,99071.22
2022-08-05T18:33:00.525Z,99096.69
2022-08-05T18:36:11.866Z,99095.69
2022-08-05T18:39:42.423Z,99107.47
2022-08-05T18:42:40.194Z,99139.63
2022-08-05T18:45:43.799Z,99148.97
2022-08-05T18:48:51.840Z,99155.72
2022-08-05T18:52:12.349Z,99167.00
2022-08-05T18:55:14.005Z,99164.94
2022-08-05T18:58:16.442Z,99185.94
2022-08-05T19:01:18.663Z,99185.75
2022-08-05T19:04:35.158Z,99198.63
2022-08-05T19:07:59.751Z,99201.59
2022-08-05T19:11:04.708Z,99199.88
2022-08-05T19:14:44.425Z,99208.16
2022-08-05T19:17:33.747Z,99212.06
2022-08-05T19:20:52.534Z,99224.63
2022-08-05T19:24:07.430Z,99238.97
2022-08-05T19:27:11.540Z,99248.09
2022-08-05T19:30:16.146Z,99238.75
2022-08-05T19:33:35.974Z,99247.75
2022-08-05T19:36:38.615Z,99260.00
2022-08-05T19:39:45.658Z,99264.84
2022-08-05T19:43:05.541Z,99280.59
2022-08-05T19:46:29.243Z,99292.03
2022-08-05T19:49:30.762Z,99286.13
2022-08-05T19:52:32.687Z,99297.16
2022-08-05T19:56:14.879Z,99279.03
2022-08-05T19:58:56.301Z,99300.88
2022-08-05T20:02:01.468Z,99302.03
2022-08-05T20:05:05.098Z,99313.59
2022-08-05T20:08:11.587Z,99315.94
2022-08-05T20:11:17.884Z,99318.38
2022-08-05T20:14:27.145Z,99323.06
2022-08-05T20:17:29.119Z,99323.09
2022-08-05T20:20:35.459Z,99323.56
2022-08-05T20:23:51.192Z,99340.09
2022-08-05T20:26:55.053Z,99338.50
2022-08-05T20:29:59.052Z,99350.72
2022-08-05T20:33:00.948Z,99361.38
2022-08-05T20:36:02.649Z,99342.91
2022-08-05T20:39:04.460Z,99356.31
2022-08-05T20:42:08.051Z,99361.00
2022-08-05T20:45:13.498Z,99359.88
2022-08-05T20:48:16.700Z,99362.63
2022-08-05T20:51:18.527Z,99359.94
2022-08-05T20:54:20.265Z,99371.34
2022-08-05T20:57:42.640Z,99379.63
2022-08-05T21:00:51.787Z,99376.13
2022-08-05T21:03:56.537Z,99380.47
2022-08-05T21:06:59.151Z,99388.28
2022-08-05T21:10:01.294Z,99391.47
2022-08-05T21:13:10.334Z,99395.00
2022-08-05T21:16:17.689Z,99403.66
2022-08-05T21:19:20.112Z,99398.53
2022-08-05T21:22:25.470Z,99396.16
2022-08-05T21:25:33.992Z,99400.50
2022-08-05T21:28:36.028Z,99396.97
2022-08-05T21:31:41.341Z,99395.38
2022-08-05T21:34:43.537Z,99405.22
2022-08-05T21:37:58.252Z,99408.75
2022-08-05T21:40:59.952Z,99404.81
2022-08-05T21:44:04.287Z,99393.41
2022-08-05T21:47:06.517Z,99413.06
2022-08-05T21:50:28.291Z,99422.84
2022-08-05T21:53:30.222Z,99421.69
2022-08-05T21:56:35.809Z,99425.59
2022-08-05T22:00:04.821Z,99423.97
2022-08-05T22:03:15.381Z,99437.72
2022-08-05T22:06:22.496Z,99434.53
2022-08-05T22:09:25.212Z,99432.97
2022-08-05T22:12:50.653Z,99443.53
2022-08-05T22:16:00.286Z,99446.28
2022-08-05T22:19:56.087Z,99441.53
2022-08-05T22:22:28.846Z,99449.78
2022-08-05T22:26:09.938Z,99445.84
2022-08-05T22:29:11.928Z,99459.25
2022-08-05T22:32:17.434Z,99465.91
2022-08-05T22:35:19.742Z,99471.81
2022-08-05T22:38:21.421Z,99485.47
2022-08-05T22:42:10.151Z,99492.16
2022-08-05T22:44:56.444Z,99491.75
2022-08-05T22:47:58.607Z,99504.38
2022-08-05T22:51:00.419Z,99504.81
2022-08-05T22:54:08.570Z,99511.53
2022-08-05T22:57:10.362Z,99511.19
2022-08-05T23:00:12.427Z,99514.75
2022-08-05T23:03:20.286Z,99509.63
2022-08-05T23:06:42.488Z,99502.19
2022-08-05T23:09:57.898Z,99512.03
2022-08-05T23:13:04.315Z,99505.75
2022-08-05T23:16:10.389Z,99494.34
2022-08-05T23:19:25.919Z,99508.50
2022-08-05T23:22:28.797Z,99507.69
2022-08-05T23:25:52.568Z,99498.56
2022-08-05T23:28:52.601Z,99509.66
2022-08-05T23:31:55.749Z,99516.31
2022-08-05T23:34:58.982Z,99508.81
2022-08-05T23:38:00.892Z,99502.50
2022-08-05T23:41:02.641Z,99504.84
2022-08-05T23:44:08.567Z,99504.44
2022-08-05T23:47:15.533Z,99503.31
2022-08-05T23:50:19.978Z,99504.09
2022-08-05T23:53:22.506Z,99497.41
2022-08-05T23:56:27.184Z,99500.50
2022-08-05T23:59:37.789Z,99499.34
